Reddick, Illinois
Current Conditions -  °F | °C
As of 6:55 AM on Tuesday 21 Oct 2014 (Local Time) from KIKK Reporting Station
Overcast Overcast  
Wind Chill: 47°   Ceiling: 4800
Heat Index: 48°   Visibility: 10mi
Dew Point: 44°   Wind: 5mph
Humidity: 85%   Direction: 320°NW
Pressure: 30.09"   Gusts: NA
Location:  41.1°N, 88.25°W
Report Text: KIKK 211155Z AUTO 32004KT 10SM OVC048 09/07 A3009 RMK AO2 7//// T00910067 10110 20081
Loading
Personal Weather Stations






























Interactive Weather Map
Tropical Storm Tracking
New forecast layout! Learn more

10-Day Weather Forecast

Advertisements
Track Severe Weather on mobile